sensor_id;sensor_type;location;lat;lon;timestamp;pressure;altitude;pressure_sealevel;temperature;humidity
12247;BME280;6186;52.022;4.692;2023-04-05T00:01:30;102631.75;;;6.80;42.84
12247;BME280;6186;52.022;4.692;2023-04-05T00:03:56;102620.34;;;6.77;42.67
12247;BME280;6186;52.022;4.692;2023-04-05T00:06:22;102614.16;;;6.73;42.85
12247;BME280;6186;52.022;4.692;2023-04-05T00:08:48;102620.28;;;6.74;43.22
12247;BME280;6186;52.022;4.692;2023-04-05T00:11:14;102624.63;;;6.73;42.88
12247;BME280;6186;52.022;4.692;2023-04-05T00:13:39;102621.09;;;6.71;43.03
12247;BME280;6186;52.022;4.692;2023-04-05T00:16:05;102626.31;;;6.70;43.09
12247;BME280;6186;52.022;4.692;2023-04-05T00:18:30;102619.28;;;6.67;43.29
12247;BME280;6186;52.022;4.692;2023-04-05T00:20:56;102618.38;;;6.66;43.32
12247;BME280;6186;52.022;4.692;2023-04-05T00:23:21;102620.97;;;6.65;42.96
12247;BME280;6186;52.022;4.692;2023-04-05T00:25:46;102617.44;;;6.63;43.05
12247;BME280;6186;52.022;4.692;2023-04-05T00:28:11;102614.78;;;6.60;43.30
12247;BME280;6186;52.022;4.692;2023-04-05T00:30:37;102615.63;;;6.59;43.32
12247;BME280;6186;52.022;4.692;2023-04-05T00:33:03;102612.09;;;6.57;42.86
12247;BME280;6186;52.022;4.692;2023-04-05T00:35:28;102602.41;;;6.51;43.09
12247;BME280;6186;52.022;4.692;2023-04-05T00:37:54;102590.94;;;6.45;43.04
12247;BME280;6186;52.022;4.692;2023-04-05T00:40:20;102600.66;;;6.52;43.49
12247;BME280;6186;52.022;4.692;2023-04-05T00:42:45;102602.38;;;6.50;42.98
12247;BME280;6186;52.022;4.692;2023-04-05T00:45:12;102605.00;;;6.50;43.23
12247;BME280;6186;52.022;4.692;2023-04-05T00:47:37;102598.00;;;6.49;43.62
12247;BME280;6186;52.022;4.692;2023-04-05T00:50:04;102600.53;;;6.44;43.35
12247;BME280;6186;52.022;4.692;2023-04-05T00:52:31;102597.91;;;6.44;43.17
12247;BME280;6186;52.022;4.692;2023-04-05T00:54:56;102601.44;;;6.46;43.49
12247;BME280;6186;52.022;4.692;2023-04-05T00:57:22;102593.59;;;6.46;43.41
12247;BME280;6186;52.022;4.692;2023-04-05T00:59:47;102592.72;;;6.47;43.50
12247;BME280;6186;52.022;4.692;2023-04-05T01:02:21;102585.75;;;6.48;43.47
12247;BME280;6186;52.022;4.692;2023-04-05T01:04:57;102592.78;;;6.49;43.32
12247;BME280;6186;52.022;4.692;2023-04-05T01:07:42;102591.88;;;6.48;43.41
12247;BME280;6186;52.022;4.692;2023-04-05T01:10:12;102589.25;;;6.47;43.34
12247;BME280;6186;52.022;4.692;2023-04-05T01:12:40;102576.03;;;6.41;43.43
12247;BME280;6186;52.022;4.692;2023-04-05T01:15:06;102583.94;;;6.44;43.18
12247;BME280;6186;52.022;4.692;2023-04-05T01:17:32;102575.19;;;6.42;43.13
12247;BME280;6186;52.022;4.692;2023-04-05T01:19:59;102580.41;;;6.42;43.29
12247;BME280;6186;52.022;4.692;2023-04-05T01:25:31;102568.19;;;6.41;43.02
12247;BME280;6186;52.022;4.692;2023-04-05T01:28:35;102568.13;;;6.38;43.26
12247;BME280;6186;52.022;4.692;2023-04-05T01:31:15;102569.78;;;6.33;43.13
12247;BME280;6186;52.022;4.692;2023-04-05T01:34:00;102572.28;;;6.28;43.65
12247;BME280;6186;52.022;4.692;2023-04-05T01:36:40;102559.81;;;6.15;43.38
12247;BME280;6186;52.022;4.692;2023-04-05T01:39:08;102572.06;;;6.16;43.18
12247;BME280;6186;52.022;4.692;2023-04-05T01:41:35;102567.63;;;6.12;43.09
12247;BME280;6186;52.022;4.692;2023-04-05T01:44:00;102564.88;;;6.06;43.06
12247;BME280;6186;52.022;4.692;2023-04-05T01:46:25;102557.72;;;5.98;43.21
12247;BME280;6186;52.022;4.692;2023-04-05T01:48:50;102542.75;;;5.91;43.32
12247;BME280;6186;52.022;4.692;2023-04-05T01:51:16;102541.00;;;5.90;43.73
12247;BME280;6186;52.022;4.692;2023-04-05T01:53:41;102556.78;;;5.94;43.40
12247;BME280;6186;52.022;4.692;2023-04-05T01:56:06;102547.97;;;5.91;43.39
12247;BME280;6186;52.022;4.692;2023-04-05T01:58:31;102548.78;;;5.87;44.05
12247;BME280;6186;52.022;4.692;2023-04-05T02:00:57;102553.03;;;5.83;43.85
12247;BME280;6186;52.022;4.692;2023-04-05T02:03:23;102548.59;;;5.79;43.48
12247;BME280;6186;52.022;4.692;2023-04-05T02:05:48;102542.38;;;5.75;43.41
12247;BME280;6186;52.022;4.692;2023-04-05T02:08:13;102544.06;;;5.72;43.70
12247;BME280;6186;52.022;4.692;2023-04-05T02:10:39;102535.28;;;5.68;43.64
12247;BME280;6186;52.022;4.692;2023-04-05T02:13:05;102516.81;;;5.59;43.74
12247;BME280;6186;52.022;4.692;2023-04-05T02:15:30;102534.28;;;5.62;43.51
12247;BME280;6186;52.022;4.692;2023-04-05T02:17:55;102530.66;;;5.57;43.55
12247;BME280;6186;52.022;4.692;2023-04-05T02:20:20;102524.44;;;5.50;43.43
12247;BME280;6186;52.022;4.692;2023-04-05T02:22:46;102532.22;;;5.49;43.85
12247;BME280;6186;52.022;4.692;2023-04-05T02:25:11;102515.50;;;5.41;43.43
12247;BME280;6186;52.022;4.692;2023-04-05T02:27:37;102521.72;;;5.46;43.36
12247;BME280;6186;52.022;4.692;2023-04-05T02:30:02;102521.75;;;5.47;43.71
12247;BME280;6186;52.022;4.692;2023-04-05T02:32:28;102513.91;;;5.47;43.70
12247;BME280;6186;52.022;4.692;2023-04-05T02:34:53;102516.59;;;5.50;43.89
12247;BME280;6186;52.022;4.692;2023-04-05T02:37:19;102501.72;;;5.46;43.84
12247;BME280;6186;52.022;4.692;2023-04-05T02:39:44;102507.00;;;5.49;44.24
12247;BME280;6186;52.022;4.692;2023-04-05T02:42:09;102500.94;;;5.50;43.72
12247;BME280;6186;52.022;4.692;2023-04-05T02:44:34;102504.47;;;5.52;43.70
12247;BME280;6186;52.022;4.692;2023-04-05T02:46:59;102504.50;;;5.54;44.03
12247;BME280;6186;52.022;4.692;2023-04-05T02:49:25;102493.94;;;5.49;43.73
12247;BME280;6186;52.022;4.692;2023-04-05T02:51:50;102496.69;;;5.55;43.99
12247;BME280;6186;52.022;4.692;2023-04-05T02:54:15;102500.22;;;5.57;43.83
12247;BME280;6186;52.022;4.692;2023-04-05T02:56:40;102487.88;;;5.50;43.74
12247;BME280;6186;52.022;4.692;2023-04-05T02:59:06;102497.59;;;5.57;44.10
12247;BME280;6186;52.022;4.692;2023-04-05T03:01:31;102500.22;;;5.59;44.03
12247;BME280;6186;52.022;4.692;2023-04-05T03:03:56;102491.47;;;5.57;43.92
12247;BME280;6186;52.022;4.692;2023-04-05T03:06:21;102482.56;;;5.47;43.54
12247;BME280;6186;52.022;4.692;2023-04-05T03:08:46;102487.00;;;5.51;44.05
12247;BME280;6186;52.022;4.692;2023-04-05T03:11:12;102484.34;;;5.48;43.92
12247;BME280;6186;52.022;4.692;2023-04-05T03:13:38;102478.09;;;5.42;43.73
12247;BME280;6186;52.022;4.692;2023-04-05T03:16:04;102484.22;;;5.42;43.56
12247;BME280;6186;52.022;4.692;2023-04-05T03:18:29;102479.75;;;5.38;44.00
12247;BME280;6186;52.022;4.692;2023-04-05T03:20:55;102478.72;;;5.32;43.48
12247;BME280;6186;52.022;4.692;2023-04-05T03:23:28;102493.56;;;5.33;43.87
12247;BME280;6186;52.022;4.692;2023-04-05T03:28:23;102483.91;;;5.29;43.65
12247;BME280;6186;52.022;4.692;2023-04-05T03:30:49;102480.41;;;5.28;43.82
12247;BME280;6186;52.022;4.692;2023-04-05T03:33:14;102482.94;;;5.25;43.95
12247;BME280;6186;52.022;4.692;2023-04-05T03:35:39;102482.06;;;5.25;43.92
12247;BME280;6186;52.022;4.692;2023-04-05T03:38:05;102471.44;;;5.17;44.02
12247;BME280;6186;52.022;4.692;2023-04-05T03:40:30;102481.97;;;5.20;43.75
12247;BME280;6186;52.022;4.692;2023-04-05T03:42:55;102473.06;;;5.12;43.87
12247;BME280;6186;52.022;4.692;2023-04-05T03:45:20;102487.97;;;5.16;43.84
12247;BME280;6186;52.022;4.692;2023-04-05T03:47:45;102487.94;;;5.15;43.90
12247;BME280;6186;52.022;4.692;2023-04-05T03:50:11;102492.28;;;5.14;44.08
12247;BME280;6186;52.022;4.692;2023-04-05T03:52:36;102494.78;;;5.11;43.99
12247;BME280;6186;52.022;4.692;2023-04-05T03:55:01;102483.31;;;5.03;44.04
12247;BME280;6186;52.022;4.692;2023-04-05T03:57:27;102484.25;;;5.07;44.08
12247;BME280;6186;52.022;4.692;2023-04-05T03:59:52;102485.91;;;5.03;44.16
12247;BME280;6186;52.022;4.692;2023-04-05T04:02:17;102484.06;;;4.99;43.75
12247;BME280;6186;52.022;4.692;2023-04-05T04:04:42;102476.16;;;4.96;44.27
12247;BME280;6186;52.022;4.692;2023-04-05T04:07:08;102477.00;;;4.94;43.93
12247;BME280;6186;52.022;4.692;2023-04-05T04:09:33;102483.00;;;4.91;43.96
12247;BME280;6186;52.022;4.692;2023-04-05T04:11:58;102485.59;;;4.90;43.72
12247;BME280;6186;52.022;4.692;2023-04-05T04:14:23;102474.19;;;4.86;44.44
12247;BME280;6186;52.022;4.692;2023-04-05T04:16:49;102479.31;;;4.83;43.75
12247;BME280;6186;52.022;4.692;2023-04-05T04:19:16;102479.25;;;4.80;44.36
12247;BME280;6186;52.022;4.692;2023-04-05T04:21:42;102476.56;;;4.77;44.10
12247;BME280;6186;52.022;4.692;2023-04-05T04:24:07;102477.38;;;4.74;44.23
12247;BME280;6186;52.022;4.692;2023-04-05T04:26:32;102475.56;;;4.72;43.89
12247;BME280;6186;52.022;4.692;2023-04-05T04:28:57;102473.00;;;4.73;44.03
12247;BME280;6186;52.022;4.692;2023-04-05T04:31:23;102480.81;;;4.73;44.05
12247;BME280;6186;52.022;4.692;2023-04-05T04:33:48;102472.06;;;4.71;44.00
12247;BME280;6186;52.022;4.692;2023-04-05T04:36:14;102471.13;;;4.68;44.36
12247;BME280;6186;52.022;4.692;2023-04-05T04:38:40;102469.38;;;4.67;44.07
12247;BME280;6186;52.022;4.692;2023-04-05T04:41:06;102484.09;;;4.65;43.73
12247;BME280;6186;52.022;4.692;2023-04-05T04:43:31;102477.03;;;4.61;44.14
12247;BME280;6186;52.022;4.692;2023-04-05T04:45:57;102474.38;;;4.58;43.94
12247;BME280;6186;52.022;4.692;2023-04-05T04:48:23;102478.66;;;4.56;44.32
12247;BME280;6186;52.022;4.692;2023-04-05T04:50:48;102474.25;;;4.53;44.44
12247;BME280;6186;52.022;4.692;2023-04-05T04:53:13;102469.91;;;4.54;44.33
12247;BME280;6186;52.022;4.692;2023-04-05T04:55:39;102468.13;;;4.53;44.53
12247;BME280;6186;52.022;4.692;2023-04-05T04:58:04;102468.97;;;4.50;44.29
12247;BME280;6186;52.022;4.692;2023-04-05T05:00:29;102470.66;;;4.48;44.63
12247;BME280;6186;52.022;4.692;2023-04-05T05:02:55;102474.06;;;4.47;44.46
12247;BME280;6186;52.022;4.692;2023-04-05T05:05:20;102469.59;;;4.42;44.16
12247;BME280;6186;52.022;4.692;2023-04-05T05:07:45;102470.50;;;4.44;43.90
12247;BME280;6186;52.022;4.692;2023-04-05T05:10:11;102472.22;;;4.43;44.13
12247;BME280;6186;52.022;4.692;2023-04-05T05:12:37;102467.72;;;4.36;44.37
12247;BME280;6186;52.022;4.692;2023-04-05T05:15:03;102467.84;;;4.41;44.21
12247;BME280;6186;52.022;4.692;2023-04-05T05:17:28;102482.59;;;4.40;44.33
12247;BME280;6186;52.022;4.692;2023-04-05T05:19:54;102478.16;;;4.38;44.25
12247;BME280;6186;52.022;4.692;2023-04-05T05:22:19;102479.09;;;4.40;44.68
12247;BME280;6186;52.022;4.692;2023-04-05T05:24:44;102478.34;;;4.44;44.19
12247;BME280;6186;52.022;4.692;2023-04-05T05:27:09;102479.25;;;4.46;44.50
12247;BME280;6186;52.022;4.692;2023-04-05T05:29:35;102480.19;;;4.48;44.43
12247;BME280;6186;52.022;4.692;2023-04-05T05:32:00;102477.63;;;4.51;44.59
12247;BME280;6186;52.022;4.692;2023-04-05T05:34:25;102474.28;;;4.55;44.81
12247;BME280;6186;52.022;4.692;2023-04-05T05:36:51;102476.88;;;4.55;44.61
12247;BME280;6186;52.022;4.692;2023-04-05T05:39:16;102481.38;;;4.60;44.37
12247;BME280;6186;52.022;4.692;2023-04-05T05:41:41;102485.84;;;4.66;44.87
12247;BME280;6186;52.022;4.692;2023-04-05T05:44:06;102479.91;;;4.71;44.89
12247;BME280;6186;52.022;4.692;2023-04-05T05:46:31;102481.72;;;4.74;44.82
12247;BME280;6186;52.022;4.692;2023-04-05T05:48:57;102462.47;;;4.69;44.94
12247;BME280;6186;52.022;4.692;2023-04-05T05:51:22;102482.66;;;4.77;44.83
12247;BME280;6186;52.022;4.692;2023-04-05T05:53:47;102478.38;;;4.79;45.01
12247;BME280;6186;52.022;4.692;2023-04-05T05:56:12;102472.31;;;4.81;44.57
12247;BME280;6186;52.022;4.692;2023-04-05T05:58:38;102479.47;;;4.89;45.05
12247;BME280;6186;52.022;4.692;2023-04-05T06:01:05;102474.22;;;4.88;45.29
12247;BME280;6186;52.022;4.692;2023-04-05T06:03:30;102473.53;;;4.96;45.43
12247;BME280;6186;52.022;4.692;2023-04-05T06:05:57;102482.31;;;5.00;44.66
12247;BME280;6186;52.022;4.692;2023-04-05T06:08:23;102470.94;;;4.96;45.19
12247;BME280;6186;52.022;4.692;2023-04-05T06:10:49;102472.88;;;5.03;45.29
12247;BME280;6186;52.022;4.692;2023-04-05T06:13:15;102482.56;;;5.09;45.16
12247;BME280;6186;52.022;4.692;2023-04-05T06:15:43;102466.03;;;5.08;44.81
12247;BME280;6186;52.022;4.692;2023-04-05T06:18:08;102483.66;;;5.18;45.23
12247;BME280;6186;52.022;4.692;2023-04-05T06:20:34;102485.50;;;5.22;45.41
12247;BME280;6186;52.022;4.692;2023-04-05T06:22:59;102474.97;;;5.19;45.32
12247;BME280;6186;52.022;4.692;2023-04-05T06:25:24;102483.09;;;5.31;45.37
12247;BME280;6186;52.022;4.692;2023-04-05T06:27:49;102473.44;;;5.29;45.53
12247;BME280;6186;52.022;4.692;2023-04-05T06:30:15;102492.00;;;5.41;45.63
12247;BME280;6186;52.022;4.692;2023-04-05T06:32:40;102484.31;;;5.47;45.22
12247;BME280;6186;52.022;4.692;2023-04-05T06:35:06;102482.72;;;5.53;45.47
12247;BME280;6186;52.022;4.692;2023-04-05T06:37:31;102483.75;;;5.61;45.79
12247;BME280;6186;52.022;4.692;2023-04-05T06:39:58;102474.28;;;5.66;46.09
12247;BME280;6186;52.022;4.692;2023-04-05T06:42:23;102476.16;;;5.73;45.68
12247;BME280;6186;52.022;4.692;2023-04-05T06:44:48;102448.16;;;5.66;46.12
12247;BME280;6186;52.022;4.692;2023-04-05T06:47:14;102473.69;;;5.81;45.72
12247;BME280;6186;52.022;4.692;2023-04-05T06:49:39;102463.38;;;5.86;45.72
12247;BME280;6186;52.022;4.692;2023-04-05T06:52:04;102480.91;;;5.90;46.09
12247;BME280;6186;52.022;4.692;2023-04-05T06:54:30;102472.31;;;5.97;46.14
12247;BME280;6186;52.022;4.692;2023-04-05T06:56:56;102474.19;;;6.04;46.18
12247;BME280;6186;52.022;4.692;2023-04-05T06:59:21;102470.78;;;6.08;45.88
12247;BME280;6186;52.022;4.692;2023-04-05T07:01:46;102476.13;;;6.12;45.83
12247;BME280;6186;52.022;4.692;2023-04-05T07:04:11;102475.31;;;6.15;46.30
12247;BME280;6186;52.022;4.692;2023-04-05T07:06:36;102471.81;;;6.16;46.20
12247;BME280;6186;52.022;4.692;2023-04-05T07:09:02;102460.41;;;6.11;45.96
12247;BME280;6186;52.022;4.692;2023-04-05T07:11:27;102475.47;;;6.24;46.55
12247;BME280;6186;52.022;4.692;2023-04-05T07:13:52;102466.03;;;6.32;46.45
12247;BME280;6186;52.022;4.692;2023-04-05T07:16:17;102460.06;;;6.39;46.65
12247;BME280;6186;52.022;4.692;2023-04-05T07:18:43;102468.94;;;6.48;46.61
12247;BME280;6186;52.022;4.692;2023-04-05T07:21:08;102467.38;;;6.58;46.70
12247;BME280;6186;52.022;4.692;2023-04-05T07:23:33;102464.91;;;6.68;46.71
12247;BME280;6186;52.022;4.692;2023-04-05T07:26:02;102458.97;;;6.77;46.56
12247;BME280;6186;52.022;4.692;2023-04-05T07:28:27;102453.84;;;6.85;46.84
12247;BME280;6186;52.022;4.692;2023-04-05T07:30:53;102452.25;;;6.94;47.12
12247;BME280;6186;52.022;4.692;2023-04-05T07:33:18;102461.06;;;7.01;46.76
12247;BME280;6186;52.022;4.692;2023-04-05T07:35:43;102454.22;;;7.07;46.93
12247;BME280;6186;52.022;4.692;2023-04-05T07:38:08;102447.28;;;7.11;46.99
12247;BME280;6186;52.022;4.692;2023-04-05T07:40:33;102450.72;;;7.08;46.58
12247;BME280;6186;52.022;4.692;2023-04-05T07:42:59;102457.72;;;7.08;46.77
12247;BME280;6186;52.022;4.692;2023-04-05T07:45:24;102440.22;;;7.05;46.88
12247;BME280;6186;52.022;4.692;2023-04-05T07:47:49;102447.38;;;7.18;46.86
12247;BME280;6186;52.022;4.692;2023-04-05T07:50:14;102443.97;;;7.25;47.13
12247;BME280;6186;52.022;4.692;2023-04-05T07:52:40;102442.34;;;7.33;47.24
12247;BME280;6186;52.022;4.692;2023-04-05T07:55:07;102452.13;;;7.45;47.34
12247;BME280;6186;52.022;4.692;2023-04-05T07:57:33;102443.50;;;7.53;47.32
12247;BME280;6186;52.022;4.692;2023-04-05T07:59:58;102449.72;;;7.61;47.45
12247;BME280;6186;52.022;4.692;2023-04-05T08:02:23;102447.25;;;7.74;47.48
12247;BME280;6186;52.022;4.692;2023-04-05T08:04:48;102446.56;;;7.91;47.54
12247;BME280;6186;52.022;4.692;2023-04-05T08:07:14;102449.41;;;8.09;47.75
12247;BME280;6186;52.022;4.692;2023-04-05T08:09:39;102443.53;;;8.30;47.93
12247;BME280;6186;52.022;4.692;2023-04-05T08:12:04;102438.44;;;8.45;47.89
12247;BME280;6186;52.022;4.692;2023-04-05T08:14:30;102438.56;;;8.63;48.03
12247;BME280;6186;52.022;4.692;2023-04-05T08:16:55;102439.63;;;8.83;48.38
12247;BME280;6186;52.022;4.692;2023-04-05T08:19:20;102431.91;;;9.07;48.30
12247;BME280;6186;52.022;4.692;2023-04-05T08:21:45;102433.78;;;9.29;48.11
12247;BME280;6186;52.022;4.692;2023-04-05T08:24:11;102423.38;;;9.49;48.52
12247;BME280;6186;52.022;4.692;2023-04-05T08:26:36;102428.75;;;9.69;48.48
12247;BME280;6186;52.022;4.692;2023-04-05T08:29:01;102424.41;;;9.87;48.84
12247;BME280;6186;52.022;4.692;2023-04-05T08:31:26;102427.16;;;10.10;49.05
12247;BME280;6186;52.022;4.692;2023-04-05T08:33:52;102421.91;;;10.34;49.01
12247;BME280;6186;52.022;4.692;2023-04-05T08:36:17;102428.06;;;10.56;49.24
12247;BME280;6186;52.022;4.692;2023-04-05T08:38:42;102421.03;;;10.70;49.23
12247;BME280;6186;52.022;4.692;2023-04-05T08:41:16;102420.16;;;10.74;48.88
12247;BME280;6186;52.022;4.692;2023-04-05T08:44:00;102413.13;;;10.86;48.98
12247;BME280;6186;52.022;4.692;2023-04-05T08:46:25;102415.72;;;11.07;49.31
12247;BME280;6186;52.022;4.692;2023-04-05T08:48:51;102423.56;;;11.30;49.52
12247;BME280;6186;52.022;4.692;2023-04-05T08:51:21;102401.53;;;11.49;49.76
12247;BME280;6186;52.022;4.692;2023-04-05T08:53:47;102421.66;;;11.77;49.77
12247;BME280;6186;52.022;4.692;2023-04-05T08:56:14;102401.34;;;11.97;50.05
12247;BME280;6186;52.022;4.692;2023-04-05T08:58:46;102413.47;;;12.25;49.57
12247;BME280;6186;52.022;4.692;2023-04-05T09:01:12;102411.59;;;12.43;50.00
12247;BME280;6186;52.022;4.692;2023-04-05T09:03:39;102412.28;;;12.63;50.10
12247;BME280;6186;52.022;4.692;2023-04-05T09:06:06;102403.28;;;12.83;50.17
12247;BME280;6186;52.022;4.692;2023-04-05T09:08:33;102408.34;;;13.10;50.39
12247;BME280;6186;52.022;4.692;2023-04-05T09:10:58;102402.75;;;13.38;50.89
12247;BME280;6186;52.022;4.692;2023-04-05T09:13:23;102404.19;;;13.63;51.13
12247;BME280;6186;52.022;4.692;2023-04-05T09:15:48;102401.91;;;14.01;51.66
12247;BME280;6186;52.022;4.692;2023-04-05T09:18:14;102403.28;;;14.26;51.76
12247;BME280;6186;52.022;4.692;2023-04-05T09:20:39;102397.78;;;14.41;51.99
12247;BME280;6186;52.022;4.692;2023-04-05T09:23:05;102405.06;;;14.80;52.95
12247;BME280;6186;52.022;4.692;2023-04-05T09:25:35;102403.50;;;15.18;53.28
12247;BME280;6186;52.022;4.692;2023-04-05T09:28:01;102395.09;;;15.42;53.59
12247;BME280;6186;52.022;4.692;2023-04-05T09:30:26;102401.38;;;15.79;54.36
12247;BME280;6186;52.022;4.692;2023-04-05T09:32:52;102397.97;;;16.12;54.91
12247;BME280;6186;52.022;4.692;2023-04-05T09:35:18;102396.94;;;16.54;55.68
12247;BME280;6186;52.022;4.692;2023-04-05T09:37:51;102385.31;;;16.92;56.31
12247;BME280;6186;52.022;4.692;2023-04-05T09:40:16;102384.69;;;17.15;56.42
12247;BME280;6186;52.022;4.692;2023-04-05T09:42:43;102390.63;;;17.24;55.49
12247;BME280;6186;52.022;4.692;2023-04-05T09:45:08;102386.59;;;17.42;56.40
12247;BME280;6186;52.022;4.692;2023-04-05T09:47:34;102388.84;;;17.86;57.87
12247;BME280;6186;52.022;4.692;2023-04-05T09:50:00;102394.00;;;18.20;58.08
12247;BME280;6186;52.022;4.692;2023-04-05T09:52:30;102387.41;;;18.31;57.93
12247;BME280;6186;52.022;4.692;2023-04-05T09:54:58;102376.34;;;18.43;57.97
12247;BME280;6186;52.022;4.692;2023-04-05T09:57:25;102375.75;;;18.61;58.37
12247;BME280;6186;52.022;4.692;2023-04-05T09:59:50;102374.38;;;18.74;58.57
12247;BME280;6186;52.022;4.692;2023-04-05T10:02:16;102372.63;;;19.00;59.26
12247;BME280;6186;52.022;4.692;2023-04-05T10:04:42;102370.75;;;19.26;59.54
12247;BME280;6186;52.022;4.692;2023-04-05T10:07:09;102370.44;;;19.35;58.93
12247;BME280;6186;52.022;4.692;2023-04-05T10:09:35;102365.22;;;19.31;58.30
12247;BME280;6186;52.022;4.692;2023-04-05T10:12:01;102366.53;;;19.44;58.78
12247;BME280;6186;52.022;4.692;2023-04-05T10:14:26;102365.50;;;19.71;59.55
12247;BME280;6186;52.022;4.692;2023-04-05T10:20:15;102353.22;;;20.10;59.10
12247;BME280;6186;52.022;4.692;2023-04-05T10:31:27;102350.00;;;20.86;59.82
12247;BME280;6186;52.022;4.692;2023-04-05T10:34:07;102347.97;;;21.12;60.10
12247;BME280;6186;52.022;4.692;2023-04-05T10:36:44;102350.34;;;21.38;59.78
12247;BME280;6186;52.022;4.692;2023-04-05T10:41:48;102346.78;;;21.38;59.20
12247;BME280;6186;52.022;4.692;2023-04-05T10:44:17;102349.75;;;21.50;58.33
12247;BME280;6186;52.022;4.692;2023-04-05T10:46:44;102337.88;;;21.37;56.92
12247;BME280;6186;52.022;4.692;2023-04-05T10:49:19;102333.25;;;21.41;57.16
12247;BME280;6186;52.022;4.692;2023-04-05T10:51:46;102345.19;;;21.71;57.97
12247;BME280;6186;52.022;4.692;2023-04-05T10:54:12;102333.56;;;21.91;58.17
12247;BME280;6186;52.022;4.692;2023-04-05T10:56:39;102317.72;;;22.03;57.83
12247;BME280;6186;52.022;4.692;2023-04-05T10:59:05;102324.59;;;22.27;57.88
12247;BME280;6186;52.022;4.692;2023-04-05T11:01:31;102326.16;;;22.48;58.23
12247;BME280;6186;52.022;4.692;2023-04-05T11:04:17;102322.28;;;22.37;54.74
12247;BME280;6186;52.022;4.692;2023-04-05T11:06:43;102317.63;;;22.23;55.05
12247;BME280;6186;52.022;4.692;2023-04-05T11:09:11;102318.16;;;22.30;54.83
12247;BME280;6186;52.022;4.692;2023-04-05T11:11:39;102315.78;;;22.60;55.27
12247;BME280;6186;52.022;4.692;2023-04-05T11:14:25;102319.41;;;22.76;54.30
12247;BME280;6186;52.022;4.692;2023-04-05T11:16:58;102317.41;;;22.79;53.99
12247;BME280;6186;52.022;4.692;2023-04-05T11:22:08;102324.16;;;22.88;53.20
12247;BME280;6186;52.022;4.692;2023-04-05T11:24:50;102317.31;;;22.98;53.17
12247;BME280;6186;52.022;4.692;2023-04-05T11:27:33;102314.31;;;23.04;52.59
12247;BME280;6186;52.022;4.692;2023-04-05T11:30:00;102309.53;;;22.76;51.49
12247;BME280;6186;52.022;4.692;2023-04-05T11:32:40;102311.44;;;22.74;52.00
12247;BME280;6186;52.022;4.692;2023-04-05T11:35:07;102295.00;;;22.80;51.81
12247;BME280;6186;52.022;4.692;2023-04-05T11:38:42;102305.63;;;22.99;51.78
12247;BME280;6186;52.022;4.692;2023-04-05T11:40:40;102303.66;;;23.02;51.65
12247;BME280;6186;52.022;4.692;2023-04-05T11:43:06;102294.84;;;23.16;52.04
12247;BME280;6186;52.022;4.692;2023-04-05T11:45:33;102294.16;;;23.28;51.62
12247;BME280;6186;52.022;4.692;2023-04-05T11:48:03;102283.41;;;23.28;51.25
12247;BME280;6186;52.022;4.692;2023-04-05T11:50:29;102282.81;;;23.23;50.28
12247;BME280;6186;52.022;4.692;2023-04-05T11:53:10;102281.47;;;22.99;48.91
12247;BME280;6186;52.022;4.692;2023-04-05T11:55:36;102283.38;;;22.80;47.57
12247;BME280;6186;52.022;4.692;2023-04-05T11:58:02;102278.63;;;22.33;46.43
12247;BME280;6186;52.022;4.692;2023-04-05T12:00:27;102246.91;;;22.07;46.84
12247;BME280;6186;52.022;4.692;2023-04-05T12:02:55;102270.25;;;22.22;46.84
12247;BME280;6186;52.022;4.692;2023-04-05T12:05:20;102268.25;;;22.27;46.90
12247;BME280;6186;52.022;4.692;2023-04-05T12:07:51;102270.97;;;22.43;47.41
12247;BME280;6186;52.022;4.692;2023-04-05T12:10:16;102267.84;;;22.52;46.98
12247;BME280;6186;52.022;4.692;2023-04-05T12:12:43;102257.72;;;22.40;46.42
12247;BME280;6186;52.022;4.692;2023-04-05T12:15:12;102258.28;;;22.64;46.72
12247;BME280;6186;52.022;4.692;2023-04-05T12:17:48;102240.09;;;22.86;46.86
12247;BME280;6186;52.022;4.692;2023-04-05T12:20:16;102257.03;;;23.19;45.32
12247;BME280;6186;52.022;4.692;2023-04-05T12:22:43;102250.78;;;23.03;43.80
12247;BME280;6186;52.022;4.692;2023-04-05T12:25:09;102260.13;;;22.63;42.09
12247;BME280;6186;52.022;4.692;2023-04-05T12:27:35;102259.09;;;21.96;40.06
12247;BME280;6186;52.022;4.692;2023-04-05T12:30:11;102257.56;;;21.36;39.54
12247;BME280;6186;52.022;4.692;2023-04-05T12:32:41;102257.41;;;21.39;40.43
12247;BME280;6186;52.022;4.692;2023-04-05T12:35:14;102249.66;;;21.33;40.56
12247;BME280;6186;52.022;4.692;2023-04-05T12:37:40;102256.06;;;21.30;40.59
12247;BME280;6186;52.022;4.692;2023-04-05T12:40:05;102253.22;;;21.15;39.85
12247;BME280;6186;52.022;4.692;2023-04-05T12:42:35;102252.53;;;20.91;39.86
12247;BME280;6186;52.022;4.692;2023-04-05T12:45:08;102248.72;;;20.77;39.92
12247;BME280;6186;52.022;4.692;2023-04-05T12:47:34;102249.88;;;20.90;40.57
12247;BME280;6186;52.022;4.692;2023-04-05T12:50:13;102238.34;;;20.89;40.27
12247;BME280;6186;52.022;4.692;2023-04-05T12:52:50;102239.88;;;20.75;40.21
12247;BME280;6186;52.022;4.692;2023-04-05T12:55:16;102237.09;;;20.57;40.17
12247;BME280;6186;52.022;4.692;2023-04-05T12:57:41;102222.31;;;20.49;40.11
12247;BME280;6186;52.022;4.692;2023-04-05T13:00:07;102229.47;;;20.48;40.03
12247;BME280;6186;52.022;4.692;2023-04-05T13:02:32;102225.31;;;20.21;39.36
12247;BME280;6186;52.022;4.692;2023-04-05T13:04:58;102219.03;;;19.81;38.88
12247;BME280;6186;52.022;4.692;2023-04-05T13:07:23;102222.06;;;19.50;38.90
12247;BME280;6186;52.022;4.692;2023-04-05T13:09:48;102221.91;;;19.31;38.76
12247;BME280;6186;52.022;4.692;2023-04-05T13:12:13;102212.19;;;19.29;39.08
12247;BME280;6186;52.022;4.692;2023-04-05T13:14:38;102216.53;;;19.33;39.15
12247;BME280;6186;52.022;4.692;2023-04-05T13:17:04;102215.09;;;19.46;39.24
12247;BME280;6186;52.022;4.692;2023-04-05T13:19:29;102204.50;;;19.44;39.14
12247;BME280;6186;52.022;4.692;2023-04-05T13:21:54;102217.41;;;19.33;38.83
12247;BME280;6186;52.022;4.692;2023-04-05T13:24:19;102211.06;;;19.13;38.54
12247;BME280;6186;52.022;4.692;2023-04-05T13:26:45;102201.88;;;18.98;38.52
12247;BME280;6186;52.022;4.692;2023-04-05T13:29:10;102199.47;;;18.91;38.59